createdAt,value
2023-05-25T00:01:16.551Z,4.97
2023-05-25T00:04:03.159Z,5.00
2023-05-25T00:06:47.770Z,4.53
2023-05-25T00:09:32.133Z,4.83
2023-05-25T00:12:16.570Z,4.20
2023-05-25T00:15:00.658Z,4.57
2023-05-25T00:17:44.478Z,4.40
2023-05-25T00:20:29.781Z,4.47
2023-05-25T00:23:13.664Z,4.70
2023-05-25T00:25:57.628Z,4.50
2023-05-25T00:28:41.475Z,4.43
2023-05-25T00:31:25.481Z,5.00
2023-05-25T00:34:09.406Z,4.27
2023-05-25T00:36:55.181Z,5.30
2023-05-25T00:39:39.022Z,5.20
2023-05-25T00:42:25.085Z,5.03
2023-05-25T00:45:09.707Z,4.97
2023-05-25T00:47:54.386Z,3.77
2023-05-25T00:50:42.022Z,3.97
2023-05-25T00:53:27.437Z,3.80
2023-05-25T00:56:20.332Z,4.37
2023-05-25T00:59:07.866Z,4.70
2023-05-25T01:01:54.171Z,4.50
2023-05-25T01:04:41.967Z,5.13
2023-05-25T01:07:27.964Z,4.67
2023-05-25T01:10:16.894Z,5.50
2023-05-25T01:13:03.280Z,5.23
2023-05-25T01:15:48.357Z,5.10
2023-05-25T01:18:33.732Z,4.73
2023-05-25T01:21:23.113Z,4.90
2023-05-25T01:24:12.317Z,4.90
2023-05-25T01:27:01.800Z,5.03
2023-05-25T01:29:48.211Z,5.00
2023-05-25T01:32:33.536Z,5.00
2023-05-25T01:35:19.960Z,6.53
2023-05-25T01:38:05.935Z,5.00
2023-05-25T01:40:49.835Z,4.93
2023-05-25T01:43:33.775Z,5.00
2023-05-25T01:46:24.708Z,4.70
2023-05-25T01:49:17.916Z,5.67
2023-05-25T01:52:09.199Z,5.47
2023-05-25T01:55:02.201Z,5.40
2023-05-25T01:57:52.820Z,4.53
2023-05-25T02:00:37.780Z,5.20
2023-05-25T02:03:22.725Z,4.53
2023-05-25T02:06:07.144Z,4.80
2023-05-25T02:08:52.513Z,5.07
2023-05-25T02:11:37.866Z,6.07
2023-05-25T02:14:22.138Z,6.77
2023-05-25T02:17:07.549Z,6.77
2023-05-25T02:19:53.287Z,4.90
2023-05-25T02:22:38.034Z,5.17
2023-05-25T02:25:24.342Z,5.67
2023-05-25T02:28:09.561Z,5.57
2023-05-25T02:30:53.531Z,5.60
2023-05-25T02:33:37.535Z,8.47
2023-05-25T02:36:21.880Z,7.20
2023-05-25T02:39:05.793Z,6.57
2023-05-25T02:41:49.713Z,8.07
2023-05-25T02:44:35.016Z,9.97
2023-05-25T02:47:19.908Z,11.50
2023-05-25T02:50:04.131Z,8.20
2023-05-25T02:52:52.118Z,10.17
2023-05-25T02:55:35.969Z,8.70
2023-05-25T02:58:20.107Z,9.53
2023-05-25T03:01:26.143Z,9.17
2023-05-25T03:04:12.120Z,9.63
2023-05-25T03:06:56.968Z,11.67
2023-05-25T03:09:41.234Z,11.27
2023-05-25T03:12:25.327Z,12.60
2023-05-25T03:15:13.253Z,12.07
2023-05-25T03:18:01.512Z,9.67
2023-05-25T03:20:50.334Z,9.73
2023-05-25T03:23:35.166Z,10.03
2023-05-25T03:26:23.064Z,10.73
2023-05-25T03:29:08.130Z,10.27
2023-05-25T03:31:52.434Z,10.37
2023-05-25T03:34:42.868Z,12.13
2023-05-25T03:37:30.310Z,10.93
2023-05-25T03:40:15.226Z,13.40
2023-05-25T03:42:59.365Z,14.13
2023-05-25T03:45:43.609Z,13.50
2023-05-25T03:48:28.144Z,14.38
2023-05-25T03:51:13.364Z,15.87
2023-05-25T03:53:57.249Z,20.50
2023-05-25T03:56:41.439Z,11.70
2023-05-25T03:59:25.670Z,11.93
2023-05-25T04:02:09.673Z,14.43
2023-05-25T04:04:53.895Z,19.13
2023-05-25T04:07:40.797Z,22.55
2023-05-25T04:10:24.777Z,25.13
2023-05-25T04:13:08.645Z,23.67
2023-05-25T04:15:52.719Z,21.58
2023-05-25T04:18:40.167Z,20.45
2023-05-25T04:21:24.502Z,16.77
2023-05-25T04:24:09.973Z,20.15
2023-05-25T04:26:54.277Z,23.20
2023-05-25T04:29:38.441Z,30.10
2023-05-25T04:32:22.454Z,31.63
2023-05-25T04:35:10.972Z,33.13
2023-05-25T04:38:03.116Z,43.30
2023-05-25T04:40:49.313Z,46.35
2023-05-25T04:43:33.926Z,51.33
2023-05-25T04:46:19.073Z,55.60
2023-05-25T04:49:03.012Z,53.00
2023-05-25T04:51:46.910Z,52.92
2023-05-25T05:07:06.312Z,37.38
2023-05-25T05:09:50.704Z,33.83
2023-05-25T05:12:34.946Z,24.63
2023-05-25T05:15:19.955Z,25.17
2023-05-25T05:18:06.567Z,19.55
2023-05-25T05:20:50.739Z,22.15
2023-05-25T05:23:36.815Z,21.83
2023-05-25T05:26:21.449Z,24.40
2023-05-25T05:29:06.457Z,24.30
2023-05-25T05:31:53.384Z,24.38
2023-05-25T05:34:37.684Z,21.55
2023-05-25T05:37:26.394Z,23.63
2023-05-25T05:40:12.925Z,22.60
2023-05-25T05:42:59.882Z,21.48
2023-05-25T05:45:43.967Z,18.95
2023-05-25T05:48:28.157Z,18.98
2023-05-25T05:51:12.761Z,18.75
2023-05-25T05:53:56.749Z,19.17
2023-05-25T05:56:42.570Z,17.90
2023-05-25T05:59:26.728Z,19.45
2023-05-25T06:02:10.787Z,17.63
2023-05-25T06:04:54.857Z,16.30
2023-05-25T06:07:39.771Z,17.80
2023-05-25T06:10:23.738Z,17.95
2023-05-25T06:13:09.569Z,18.23
2023-05-25T06:15:53.600Z,15.80
2023-05-25T06:18:40.826Z,13.05
2023-05-25T06:21:24.693Z,13.85
2023-05-25T06:24:09.375Z,13.43
2023-05-25T06:26:53.327Z,13.75
2023-05-25T06:29:38.960Z,12.77
2023-05-25T06:32:22.984Z,15.07
2023-05-25T06:35:08.071Z,14.30
2023-05-25T06:37:52.882Z,17.63
2023-05-25T06:40:37.244Z,16.17
2023-05-25T06:43:21.444Z,15.32
2023-05-25T06:46:26.820Z,15.88
2023-05-25T06:49:10.894Z,14.38
2023-05-25T06:51:54.827Z,14.23
2023-05-25T06:54:38.621Z,12.95
2023-05-25T06:57:22.809Z,12.30
2023-05-25T07:00:12.295Z,12.07
2023-05-25T07:02:57.667Z,15.00
2023-05-25T07:05:41.586Z,15.55
2023-05-25T07:08:25.516Z,16.67
2023-05-25T07:11:12.494Z,20.20
2023-05-25T07:13:56.421Z,19.85
2023-05-25T07:16:40.266Z,23.08
2023-05-25T07:19:25.545Z,21.45
2023-05-25T07:22:09.883Z,20.67
2023-05-25T07:24:53.884Z,19.60
2023-05-25T07:27:37.828Z,17.98
2023-05-25T07:30:22.159Z,18.30
2023-05-25T07:33:06.071Z,15.95
2023-05-25T07:35:51.908Z,17.25
2023-05-25T07:38:35.878Z,16.05
2023-05-25T07:41:19.880Z,17.77
2023-05-25T07:44:03.806Z,16.77
2023-05-25T07:46:47.692Z,17.20
2023-05-25T07:49:31.609Z,15.85
2023-05-25T07:52:16.849Z,14.88
2023-05-25T07:55:00.716Z,12.13
2023-05-25T07:57:44.597Z,10.27
2023-05-25T08:00:29.040Z,9.18
2023-05-25T08:03:13.812Z,8.48
2023-05-25T08:05:57.798Z,6.97
2023-05-25T08:08:45.019Z,7.25
2023-05-25T08:11:28.919Z,6.63
2023-05-25T08:14:12.773Z,6.40
2023-05-25T08:16:56.680Z,7.22
2023-05-25T08:19:40.706Z,7.30
2023-05-25T08:22:24.624Z,8.15
2023-05-25T08:25:11.299Z,6.38
2023-05-25T08:27:55.207Z,6.32
2023-05-25T08:30:39.065Z,5.70
2023-05-25T08:33:25.145Z,5.53
2023-05-25T08:36:10.307Z,4.95
2023-05-25T08:38:54.138Z,4.90
2023-05-25T08:41:46.142Z,4.82
2023-05-25T08:44:30.191Z,5.22
2023-05-25T08:47:15.772Z,5.70
2023-05-25T08:50:04.133Z,5.80
2023-05-25T08:52:53.004Z,7.25
2023-05-25T08:55:40.860Z,5.40
2023-05-25T08:58:32.192Z,5.30
2023-05-25T09:01:20.137Z,5.38
2023-05-25T09:04:05.068Z,5.38
2023-05-25T09:07:05.695Z,5.38
2023-05-25T09:09:53.289Z,4.25
2023-05-25T09:12:39.345Z,3.80
2023-05-25T09:15:24.870Z,5.15
2023-05-25T09:18:09.531Z,4.53
2023-05-25T09:20:55.497Z,4.78
2023-05-25T09:23:40.281Z,5.25
2023-05-25T09:26:24.299Z,5.38
2023-05-25T09:29:08.206Z,6.82
2023-05-25T09:31:53.753Z,7.40
2023-05-25T09:34:37.586Z,5.93
2023-05-25T09:37:22.017Z,6.03
2023-05-25T09:40:07.312Z,5.90
2023-05-25T09:42:52.075Z,6.30
2023-05-25T09:45:38.288Z,6.00
2023-05-25T09:48:24.471Z,6.47
2023-05-25T09:51:09.364Z,6.80
2023-05-25T09:53:53.441Z,6.65
2023-05-25T09:56:37.802Z,6.82
2023-05-25T09:59:23.975Z,7.90
2023-05-25T10:02:08.086Z,7.72
2023-05-25T10:04:53.532Z,8.38
2023-05-25T10:07:40.398Z,7.68
2023-05-25T10:10:25.233Z,8.73
2023-05-25T10:13:10.608Z,7.85
2023-05-25T10:15:55.379Z,8.38
2023-05-25T10:18:45.109Z,10.43
2023-05-25T10:21:31.728Z,8.20
2023-05-25T10:24:25.789Z,8.23
2023-05-25T10:27:26.267Z,9.10
2023-05-25T10:30:15.289Z,8.80
2023-05-25T10:32:59.536Z,9.43
2023-05-25T10:36:01.380Z,9.25
2023-05-25T10:38:48.734Z,9.57
2023-05-25T10:41:32.690Z,9.10
2023-05-25T10:44:17.600Z,8.68
2023-05-25T10:47:01.805Z,9.38
2023-05-25T10:49:57.878Z,9.07
2023-05-25T10:52:42.168Z,8.10
2023-05-25T10:55:31.888Z,9.68
2023-05-25T10:58:17.673Z,9.07
2023-05-25T11:01:03.761Z,8.15
2023-05-25T11:03:58.847Z,8.63
2023-05-25T11:07:16.460Z,8.23
2023-05-25T11:10:00.525Z,8.70
2023-05-25T11:12:47.709Z,8.27
2023-05-25T11:15:31.846Z,7.60
2023-05-25T11:18:16.386Z,8.00
2023-05-25T11:21:13.369Z,7.50
2023-05-25T11:23:58.958Z,6.32
2023-05-25T11:26:59.933Z,7.28
2023-05-25T11:29:45.280Z,7.80
2023-05-25T11:32:29.381Z,7.47
2023-05-25T11:35:13.580Z,6.65
2023-05-25T11:37:57.386Z,6.28
2023-05-25T11:40:41.448Z,6.40
2023-05-25T11:43:26.944Z,6.68
2023-05-25T11:46:12.717Z,6.18
2023-05-25T11:48:56.959Z,6.95
2023-05-25T11:51:40.891Z,7.25
2023-05-25T11:54:25.818Z,6.60
2023-05-25T11:57:16.326Z,6.82
2023-05-25T12:00:06.869Z,7.28
2023-05-25T12:02:53.288Z,5.95
2023-05-25T12:05:41.414Z,6.35
2023-05-25T12:08:33.710Z,7.63
2023-05-25T12:11:17.857Z,6.38
2023-05-25T12:14:02.692Z,5.97
2023-05-25T12:16:47.007Z,5.80
2023-05-25T12:19:33.177Z,5.25
2023-05-25T12:22:17.664Z,4.95
2023-05-25T12:25:01.757Z,5.32
2023-05-25T12:27:47.270Z,4.90
2023-05-25T12:30:31.244Z,4.72
2023-05-25T12:33:16.117Z,4.55
2023-05-25T12:36:01.537Z,4.35
2023-05-25T12:39:00.162Z,4.85
2023-05-25T12:41:49.439Z,4.78
2023-05-25T12:44:35.757Z,4.60
2023-05-25T12:47:22.643Z,4.45
2023-05-25T12:50:13.957Z,4.65
2023-05-25T12:53:04.189Z,4.00
2023-05-25T12:55:48.354Z,4.07
2023-05-25T12:58:32.370Z,4.93
2023-05-25T13:01:16.741Z,3.90
2023-05-25T13:04:00.706Z,4.00
2023-05-25T13:06:44.473Z,2.95
2023-05-25T13:09:30.036Z,3.10
2023-05-25T13:12:13.908Z,3.20
2023-05-25T13:14:57.852Z,3.30
2023-05-25T13:17:43.957Z,2.60
2023-05-25T13:20:29.845Z,3.25
2023-05-25T13:23:13.944Z,3.22
2023-05-25T13:25:59.512Z,3.35
2023-05-25T13:28:43.354Z,3.00
2023-05-25T13:31:27.441Z,3.42
2023-05-25T13:34:11.789Z,3.10
2023-05-25T13:36:55.677Z,3.38
2023-05-25T13:39:39.629Z,3.25
2023-05-25T13:42:25.166Z,3.05
2023-05-25T13:45:10.267Z,3.30
2023-05-25T13:47:54.415Z,3.13
2023-05-25T13:50:38.432Z,3.00
2023-05-25T13:53:22.353Z,2.80
2023-05-25T13:56:06.972Z,3.55
2023-05-25T13:58:52.224Z,2.70
2023-05-25T14:01:36.417Z,2.78
2023-05-25T14:04:20.350Z,3.55
2023-05-25T14:07:04.532Z,4.57
2023-05-25T14:09:48.590Z,3.30
2023-05-25T14:12:32.990Z,3.08
2023-05-25T14:15:18.726Z,2.58
2023-05-25T14:18:02.815Z,2.88
2023-05-25T14:20:46.961Z,2.72
2023-05-25T14:23:31.361Z,3.05
2023-05-25T14:26:15.261Z,2.80
2023-05-25T14:28:59.118Z,2.90
2023-05-25T14:31:44.324Z,3.15
2023-05-25T14:34:28.803Z,3.40
2023-05-25T14:37:13.299Z,2.97
2023-05-25T14:39:57.238Z,2.55
2023-05-25T14:42:41.245Z,2.75
2023-05-25T14:45:25.005Z,2.25
2023-05-25T14:51:00.300Z,2.63
2023-05-25T14:53:44.168Z,2.60
2023-05-25T14:56:28.583Z,3.15
2023-05-25T14:59:12.554Z,2.47
2023-05-25T15:01:56.483Z,2.85
2023-05-25T15:04:41.862Z,2.60
2023-05-25T15:07:25.781Z,2.70
2023-05-25T15:10:10.582Z,2.17
2023-05-25T15:12:54.378Z,2.10
2023-05-25T15:15:38.307Z,2.72
2023-05-25T15:18:22.422Z,2.10
2023-05-25T15:21:07.877Z,2.33
2023-05-25T15:23:51.732Z,2.28
2023-05-25T15:26:35.474Z,1.88
2023-05-25T15:29:19.357Z,2.10
2023-05-25T15:32:03.254Z,2.30
2023-05-25T15:34:47.521Z,2.65
2023-05-25T15:37:33.019Z,2.33
2023-05-25T15:40:16.998Z,2.45
2023-05-25T15:43:00.742Z,2.60
2023-05-25T15:45:45.013Z,2.30
2023-05-25T15:48:29.048Z,2.38
2023-05-25T15:51:12.968Z,2.65
2023-05-25T15:53:58.251Z,2.22
2023-05-25T15:56:42.215Z,2.63
2023-05-25T15:59:26.104Z,2.20
2023-05-25T16:02:09.963Z,2.22
2023-05-25T16:04:53.850Z,2.22
2023-05-25T16:07:37.721Z,1.67
2023-05-25T16:10:22.923Z,2.00
2023-05-25T16:13:06.882Z,2.00
2023-05-25T16:15:50.831Z,1.80
2023-05-25T16:18:34.782Z,1.85
2023-05-25T16:21:18.792Z,2.53
2023-05-25T16:24:02.818Z,3.08
2023-05-25T16:26:48.274Z,3.40
2023-05-25T16:29:32.332Z,3.13
2023-05-25T16:32:16.555Z,3.25
2023-05-25T16:35:00.651Z,3.50
2023-05-25T16:37:45.984Z,3.42
2023-05-25T16:40:30.309Z,3.35
2023-05-25T16:43:15.694Z,3.00
2023-05-25T16:45:59.692Z,2.45
2023-05-25T16:48:43.582Z,3.80
2023-05-25T16:51:27.432Z,2.60
2023-05-25T16:54:11.457Z,2.92
2023-05-25T16:56:55.382Z,4.07
2023-05-25T16:59:41.057Z,4.07
2023-05-25T17:02:25.241Z,4.03
2023-05-25T17:05:09.956Z,4.60
2023-05-25T17:07:53.938Z,3.22
2023-05-25T17:10:37.977Z,2.70
2023-05-25T17:13:22.205Z,2.60
2023-05-25T17:16:07.660Z,2.60
2023-05-25T17:18:51.687Z,2.70
2023-05-25T17:21:35.906Z,2.13
2023-05-25T17:24:19.809Z,1.80
2023-05-25T17:27:03.831Z,2.17
2023-05-25T17:29:47.770Z,2.50
2023-05-25T17:32:33.090Z,3.20
2023-05-25T17:35:17.048Z,2.63
2023-05-25T17:38:00.898Z,3.03
2023-05-25T17:40:45.019Z,3.17
2023-05-25T17:43:28.863Z,3.28
2023-05-25T17:46:13.045Z,2.50
2023-05-25T17:48:58.488Z,2.70
2023-05-25T17:51:42.411Z,2.83
2023-05-25T17:54:27.462Z,2.55
2023-05-25T17:57:11.406Z,2.65
2023-05-25T17:59:55.318Z,2.40
2023-05-25T18:02:39.397Z,2.22
2023-05-25T18:05:24.864Z,2.83
2023-05-25T18:08:08.748Z,2.75
2023-05-25T18:10:53.051Z,3.20
2023-05-25T18:13:37.003Z,3.00
2023-05-25T18:16:20.914Z,3.30
2023-05-25T18:19:04.893Z,3.20
2023-05-25T18:21:50.194Z,3.28
2023-05-25T18:24:34.155Z,3.50
2023-05-25T18:27:18.328Z,2.75
2023-05-25T18:30:02.309Z,2.72
2023-05-25T18:32:49.572Z,2.20
2023-05-25T18:35:33.866Z,2.40
2023-05-25T18:38:19.460Z,2.65
2023-05-25T18:41:03.724Z,2.38
2023-05-25T18:43:49.289Z,2.75
2023-05-25T18:46:33.477Z,2.40
2023-05-25T18:49:17.429Z,2.28
2023-05-25T18:52:01.613Z,2.20
2023-05-25T18:54:48.765Z,2.20
2023-05-25T18:57:33.175Z,2.50
2023-05-25T19:00:17.920Z,2.20
2023-05-25T19:03:02.060Z,2.35
2023-05-25T19:05:46.303Z,2.17
2023-05-25T19:08:30.589Z,2.30
2023-05-25T19:11:16.007Z,2.30
2023-05-25T19:13:59.903Z,2.15
2023-05-25T19:16:44.468Z,1.90
2023-05-25T19:19:29.588Z,2.58
2023-05-25T19:22:13.648Z,2.65
2023-05-25T19:25:01.111Z,2.50
2023-05-25T19:27:49.832Z,2.53
2023-05-25T19:30:34.176Z,3.03
2023-05-25T19:33:18.506Z,3.05
2023-05-25T19:36:02.694Z,2.65
2023-05-25T19:38:47.248Z,3.38
2023-05-25T19:41:31.260Z,2.90
2023-05-25T19:44:16.654Z,3.00
2023-05-25T19:47:01.038Z,2.97
2023-05-25T19:49:44.885Z,2.42
2023-05-25T19:52:28.889Z,2.65
2023-05-25T19:55:12.966Z,2.35
2023-05-25T19:57:56.889Z,2.35
2023-05-25T20:00:42.168Z,2.40
2023-05-25T20:03:26.164Z,2.55
2023-05-25T20:06:10.269Z,2.65
2023-05-25T20:08:54.215Z,2.50
2023-05-25T20:11:38.161Z,2.80
2023-05-25T20:14:22.221Z,2.90
2023-05-25T20:17:07.517Z,2.60
2023-05-25T20:19:51.551Z,2.42
2023-05-25T20:22:35.546Z,3.10
2023-05-25T20:25:19.498Z,2.80
2023-05-25T20:28:04.046Z,2.83
2023-05-25T20:30:48.170Z,2.90
2023-05-25T20:33:33.833Z,2.83
2023-05-25T20:36:18.541Z,2.97
2023-05-25T20:39:03.310Z,2.95
2023-05-25T20:41:47.749Z,3.08
2023-05-25T20:44:32.207Z,3.00
2023-05-25T20:47:16.330Z,2.83
2023-05-25T20:50:01.940Z,3.17
2023-05-25T20:52:48.244Z,2.92
2023-05-25T20:55:32.540Z,3.20
2023-05-25T20:58:16.785Z,2.67
2023-05-25T21:01:01.096Z,3.40
2023-05-25T21:03:45.418Z,3.30
2023-05-25T21:06:32.444Z,2.72
2023-05-25T21:09:16.572Z,2.88
2023-05-25T21:12:01.724Z,3.83
2023-05-25T21:14:45.834Z,3.75
2023-05-25T21:17:30.095Z,2.88
2023-05-25T21:20:14.459Z,3.53
2023-05-25T21:23:00.730Z,3.08
2023-05-25T21:25:45.319Z,3.58
2023-05-25T21:28:29.525Z,2.92
2023-05-25T21:31:13.447Z,3.13
2023-05-25T21:33:59.311Z,3.10
2023-05-25T21:36:43.970Z,4.10
2023-05-25T21:39:29.179Z,3.95
2023-05-25T21:42:13.163Z,3.63
2023-05-25T21:44:57.032Z,3.72
2023-05-25T21:47:40.914Z,3.28
2023-05-25T21:50:24.725Z,3.92
2023-05-25T21:53:08.672Z,3.55
2023-05-25T21:55:53.987Z,3.63
2023-05-25T21:58:37.933Z,3.47
2023-05-25T22:01:22.050Z,4.30
2023-05-25T22:04:06.068Z,3.95
2023-05-25T22:06:49.924Z,4.15
2023-05-25T22:09:33.879Z,3.65
2023-05-25T22:12:20.859Z,3.92
2023-05-25T22:15:05.368Z,4.13
2023-05-25T22:17:49.679Z,4.30
2023-05-25T22:20:33.867Z,4.40
2023-05-25T22:23:17.736Z,4.07
2023-05-25T22:26:01.567Z,3.97
2023-05-25T22:28:46.910Z,3.95
2023-05-25T22:31:31.034Z,4.10
2023-05-25T22:34:14.876Z,3.92
2023-05-25T22:36:58.741Z,4.18
2023-05-25T22:39:42.717Z,4.10
2023-05-25T22:42:26.682Z,4.97
2023-05-25T22:45:12.609Z,4.40
2023-05-25T22:47:56.481Z,4.72
2023-05-25T22:50:40.370Z,4.85
2023-05-25T22:53:24.318Z,4.82
2023-05-25T22:56:08.576Z,5.07
2023-05-25T22:58:52.414Z,4.88
2023-05-25T23:01:37.748Z,5.47
2023-05-25T23:04:21.753Z,5.18
2023-05-25T23:07:06.080Z,5.30
2023-05-25T23:09:49.965Z,5.80
2023-05-25T23:12:33.830Z,5.85
2023-05-25T23:15:18.581Z,5.82
2023-05-25T23:18:03.910Z,5.57
2023-05-25T23:20:47.852Z,5.72
2023-05-25T23:23:31.721Z,5.65
2023-05-25T23:26:15.609Z,6.38
2023-05-25T23:28:59.465Z,5.50
2023-05-25T23:31:43.529Z,5.18
2023-05-25T23:34:29.090Z,6.20
2023-05-25T23:37:13.076Z,5.20
2023-05-25T23:39:56.936Z,5.18
2023-05-25T23:42:44.388Z,4.80
2023-05-25T23:45:28.368Z,5.63
2023-05-25T23:48:12.346Z,5.85
2023-05-25T23:50:57.676Z,5.38
2023-05-25T23:53:41.758Z,5.03
2023-05-25T23:56:27.947Z,5.72
2023-05-25T23:59:15.160Z,5.32
